Time;durP1;ratioP1;P1;durP2;ratioP2;P2;SDS_P1;SDS_P2;PMS_P1;PMS_P2;Temp;Humidity;BMP_temperature;BMP_pressure;BME280_temperature;BME280_humidity;BME280_pressure;Samples;Min_cycle;Max_cycle;Signal;HPM_P1;HPM_P2
2023/03/09 00:01:53;;;;;;;19.20;13.80;;;2.30;99.90;;;;;;5089726;28;20515;-90
2023/03/09 00:04:19;;;;;;;22.25;14.10;;;2.30;99.90;;;;;;5090014;28;20487;-91
2023/03/09 00:06:45;;;;;;;21.52;13.88;;;2.40;99.90;;;;;;5088809;28;20432;-91
2023/03/09 00:09:13;;;;;;;20.67;14.10;;;2.30;99.90;;;;;;5090210;28;20392;-90
2023/03/09 00:11:43;;;;;;;18.98;13.77;;;2.30;99.90;;;;;;5088853;28;20399;-91
2023/03/09 00:14:09;;;;;;;20.17;13.95;;;2.20;99.90;;;;;;5089903;28;20423;-91
2023/03/09 00:16:38;;;;;;;20.40;13.65;;;2.20;99.90;;;;;;5089056;28;20404;-91
2023/03/09 00:19:03;;;;;;;20.08;13.50;;;2.20;99.90;;;;;;5089758;28;20444;-92
2023/03/09 00:21:40;;;;;;;19.83;14.68;;;2.20;99.90;;;;;;5089418;28;20436;-91
2023/03/09 00:24:15;;;;;;;19.33;14.52;;;2.20;99.90;;;;;;5088969;28;20530;-90
2023/03/09 00:26:43;;;;;;;17.85;13.80;;;2.20;99.90;;;;;;5089787;28;20900;-91
2023/03/09 00:29:11;;;;;;;17.08;12.60;;;2.20;99.90;;;;;;5088682;28;20396;-91
2023/03/09 00:31:37;;;;;;;17.63;12.80;;;2.20;99.90;;;;;;5089226;28;20945;-91
2023/03/09 00:34:03;;;;;;;18.63;13.03;;;2.20;99.90;;;;;;5089014;28;20401;-91
2023/03/09 00:36:29;;;;;;;16.85;12.73;;;2.20;99.90;;;;;;5089795;28;20401;-91
2023/03/09 00:38:56;;;;;;;17.40;13.32;;;2.10;99.90;;;;;;5089289;28;20875;-91
2023/03/09 00:41:23;;;;;;;17.77;13.05;;;2.10;99.90;;;;;;5088874;28;20400;-90
2023/03/09 00:43:49;;;;;;;18.90;13.07;;;2.10;99.90;;;;;;5106462;28;20402;-91
2023/03/09 00:46:15;;;;;;;17.93;13.00;;;2.10;99.90;;;;;;5088120;28;20520;-92
2023/03/09 00:48:42;;;;;;;17.55;12.85;;;2.10;99.90;;;;;;5089788;28;20814;-91
2023/03/09 00:51:09;;;;;;;17.90;12.80;;;2.00;99.90;;;;;;5088693;28;20463;-91
2023/03/09 00:53:35;;;;;;;18.73;13.52;;;2.00;99.90;;;;;;5089478;28;20404;-90
2023/03/09 00:56:03;;;;;;;17.92;13.27;;;2.00;99.90;;;;;;5088918;28;20412;-91
2023/03/09 00:58:29;;;;;;;18.85;14.05;;;1.90;99.90;;;;;;5088955;28;20396;-91
2023/03/09 01:00:54;;;;;;;22.00;14.63;;;1.90;99.90;;;;;;5089351;28;20400;-91
2023/03/09 01:03:20;;;;;;;18.88;13.30;;;1.90;99.90;;;;;;5092397;28;20423;-91
2023/03/09 01:05:46;;;;;;;21.83;15.17;;;1.80;99.90;;;;;;5093406;28;20431;-91
2023/03/09 01:08:11;;;;;;;19.90;14.37;;;1.70;99.90;;;;;;5109399;28;20410;-90
2023/03/09 01:10:38;;;;;;;22.25;15.45;;;1.60;99.90;;;;;;5093857;28;20879;-91
2023/03/09 01:13:04;;;;;;;25.75;17.60;;;1.60;99.90;;;;;;5092362;28;20488;-91
2023/03/09 01:15:29;;;;;;;24.75;18.30;;;1.50;99.90;;;;;;5110050;28;20397;-91
2023/03/09 01:17:55;;;;;;;25.60;17.80;;;1.40;99.90;;;;;;5093162;28;20420;-90
2023/03/09 01:20:21;;;;;;;24.67;17.02;;;1.40;99.90;;;;;;5092534;28;20396;-91
2023/03/09 01:22:47;;;;;;;23.98;17.83;;;1.40;99.90;;;;;;5109676;28;20454;-91
2023/03/09 01:25:13;;;;;;;23.20;16.40;;;1.30;99.90;;;;;;5091728;28;20435;-90
2023/03/09 01:27:39;;;;;;;21.90;16.33;;;1.20;99.90;;;;;;5093418;28;20504;-91
2023/03/09 01:30:06;;;;;;;20.95;15.40;;;1.20;99.90;;;;;;5092503;28;20461;-90
2023/03/09 01:32:31;;;;;;;19.70;13.93;;;1.10;99.90;;;;;;5092530;28;20751;-91
2023/03/09 01:34:57;;;;;;;19.17;14.23;;;1.10;99.90;;;;;;5092338;28;20413;-91
2023/03/09 01:37:23;;;;;;;21.60;14.83;;;1.00;99.90;;;;;;5092542;28;20399;-91
2023/03/09 01:39:48;;;;;;;23.23;16.52;;;1.10;99.90;;;;;;5092368;28;20401;-90
2023/03/09 01:42:14;;;;;;;19.98;15.32;;;0.90;99.90;;;;;;5092282;28;20412;-91
2023/03/09 01:44:40;;;;;;;21.98;17.05;;;0.90;99.90;;;;;;5092377;28;20922;-91
2023/03/09 01:47:06;;;;;;;22.63;16.90;;;0.90;99.90;;;;;;5091603;28;20400;-91
2023/03/09 01:49:39;;;;;;;24.00;17.70;;;0.80;99.90;;;;;;5092597;28;20408;-92
2023/03/09 01:52:27;;;;;;;24.73;17.83;;;0.80;99.90;;;;;;5092134;28;20411;-90
2023/03/09 01:55:12;;;;;;;26.43;18.40;;;0.70;99.90;;;;;;5091805;28;20411;-91
2023/03/09 01:57:43;;;;;;;24.38;18.52;;;0.70;99.90;;;;;;5092486;28;20441;-91
2023/03/09 02:00:18;;;;;;;24.58;18.80;;;0.70;99.90;;;;;;5091499;28;20412;-91
2023/03/09 02:03:08;;;;;;;24.60;19.10;;;0.70;99.90;;;;;;5092411;28;21056;-90
2023/03/09 02:05:38;;;;;;;24.98;18.60;;;0.70;99.90;;;;;;5091998;28;20423;-92
2023/03/09 02:08:05;;;;;;;24.33;19.20;;;0.70;99.90;;;;;;5091259;28;20416;-91
2023/03/09 02:10:36;;;;;;;27.85;21.42;;;0.70;99.90;;;;;;5091725;28;20455;-91
2023/03/09 02:13:06;;;;;;;27.25;22.13;;;0.70;99.90;;;;;;5091238;28;20393;-91
2023/03/09 02:15:32;;;;;;;29.92;22.25;;;0.70;99.90;;;;;;5091966;28;20413;-90
2023/03/09 02:17:58;;;;;;;30.30;22.23;;;0.70;99.90;;;;;;5091024;28;20388;-91
2023/03/09 02:20:52;;;;;;;29.00;21.77;;;0.70;99.90;;;;;;5092212;28;20404;-91
2023/03/09 02:24:02;;;;;;;25.70;19.27;;;0.70;99.90;;;;;;5091840;28;20506;-91
2023/03/09 02:26:45;;;;;;;30.27;22.05;;;0.80;99.90;;;;;;5090810;28;20455;-91
2023/03/09 02:29:11;;;;;;;23.75;18.15;;;0.80;99.90;;;;;;5091619;28;20397;-90
2023/03/09 02:31:37;;;;;;;24.27;18.48;;;0.80;99.90;;;;;;5091271;28;20392;-90
2023/03/09 02:34:03;;;;;;;23.40;17.43;;;0.80;99.90;;;;;;5087801;28;20478;-90
2023/03/09 02:36:28;;;;;;;24.43;18.33;;;0.70;99.90;;;;;;5071405;28;20430;-92
2023/03/09 02:39:00;;;;;;;24.77;18.48;;;0.80;99.90;;;;;;5070833;28;20410;-90
2023/03/09 02:41:25;;;;;;;25.40;18.13;;;0.70;99.90;;;;;;5070900;28;20481;-92
2023/03/09 02:43:54;;;;;;;22.33;17.33;;;0.80;99.90;;;;;;5070599;28;20485;-91
2023/03/09 02:46:20;;;;;;;23.73;17.42;;;0.80;99.90;;;;;;5071443;28;20480;-90
2023/03/09 02:48:46;;;;;;;25.25;17.65;;;0.60;99.90;;;;;;5070716;28;20504;-89
2023/03/09 02:51:12;;;;;;;24.63;17.35;;;0.60;99.90;;;;;;5070632;28;20414;-91
2023/03/09 02:53:38;;;;;;;23.33;17.03;;;0.60;99.90;;;;;;5088039;28;20398;-90
2023/03/09 02:56:03;;;;;;;26.30;18.27;;;0.70;99.90;;;;;;5069871;28;20493;-90
2023/03/09 02:58:29;;;;;;;27.00;19.40;;;0.70;99.90;;;;;;5071375;28;20406;-91
2023/03/09 03:00:55;;;;;;;28.77;19.98;;;0.90;99.90;;;;;;5069736;28;20397;-90
2023/03/09 03:03:20;;;;;;;24.75;18.02;;;0.70;99.90;;;;;;5071156;28;20410;-92
2023/03/09 03:05:47;;;;;;;30.20;20.23;;;0.70;99.90;;;;;;5070281;28;20935;-90
2023/03/09 03:08:13;;;;;;;28.15;20.10;;;0.70;99.90;;;;;;5070272;28;20438;-89
2023/03/09 03:10:39;;;;;;;29.65;20.38;;;0.70;99.90;;;;;;5087051;28;20449;-90
2023/03/09 03:13:04;;;;;;;29.33;19.73;;;0.80;99.90;;;;;;5070143;28;20405;-90
2023/03/09 03:15:30;;;;;;;26.97;19.23;;;0.80;99.90;;;;;;5070586;28;20459;-91
2023/03/09 03:17:56;;;;;;;27.80;19.40;;;0.80;99.90;;;;;;5069444;28;20463;-90
2023/03/09 03:20:21;;;;;;;28.40;19.60;;;0.90;99.90;;;;;;5070534;28;20400;-92
2023/03/09 03:22:47;;;;;;;30.73;19.83;;;0.90;99.90;;;;;;5086571;28;20489;-91
2023/03/09 03:25:13;;;;;;;28.13;18.98;;;0.90;99.90;;;;;;5086568;28;20991;-90
2023/03/09 03:27:39;;;;;;;27.83;19.13;;;0.90;99.90;;;;;;5069790;28;21031;-88
2023/03/09 03:30:06;;;;;;;29.02;20.02;;;0.90;99.90;;;;;;5070093;28;20410;-91
2023/03/09 03:32:32;;;;;;;31.35;20.55;;;0.90;99.90;;;;;;5070150;28;20398;-91
2023/03/09 03:34:57;;;;;;;29.30;20.15;;;0.90;99.90;;;;;;5069189;28;20625;-90
2023/03/09 03:37:23;;;;;;;29.77;19.90;;;1.00;99.90;;;;;;5086634;28;20414;-90
2023/03/09 03:39:49;;;;;;;29.75;20.02;;;1.00;99.90;;;;;;5069440;28;20398;-90
2023/03/09 03:42:14;;;;;;;30.80;21.30;;;1.00;99.90;;;;;;5070073;28;20418;-90
2023/03/09 03:44:40;;;;;;;31.37;20.70;;;1.00;99.90;;;;;;5069389;28;20738;-90
2023/03/09 03:47:06;;;;;;;31.88;21.33;;;1.10;99.90;;;;;;5069802;28;20972;-91
2023/03/09 03:49:31;;;;;;;33.00;21.45;;;1.00;99.90;;;;;;5069844;28;20398;-90
2023/03/09 03:51:57;;;;;;;32.38;21.30;;;1.00;99.90;;;;;;5068672;28;20406;-91
2023/03/09 03:54:23;;;;;;;32.43;21.13;;;1.00;99.90;;;;;;5069505;28;20432;-89
2023/03/09 03:56:48;;;;;;;32.20;21.37;;;1.00;99.90;;;;;;5085489;28;20451;-90
2023/03/09 03:59:14;;;;;;;31.63;21.58;;;1.00;99.90;;;;;;5070092;28;20761;-90
2023/03/09 04:01:40;;;;;;;35.88;22.52;;;1.00;99.90;;;;;;5069051;28;20394;-91
2023/03/09 04:04:05;;;;;;;34.30;22.27;;;1.00;99.90;;;;;;5069729;28;20821;-90
2023/03/09 04:06:32;;;;;;;33.20;21.67;;;1.00;99.90;;;;;;5085904;28;20478;-90
2023/03/09 04:08:58;;;;;;;33.70;22.58;;;0.90;99.90;;;;;;5085735;28;20505;-91
2023/03/09 04:11:24;;;;;;;33.47;21.48;;;1.00;99.90;;;;;;5086079;28;20406;-91
2023/03/09 04:13:50;;;;;;;36.50;23.80;;;0.90;99.90;;;;;;5068232;28;20991;-91
2023/03/09 04:16:16;;;;;;;33.90;22.80;;;0.90;99.90;;;;;;5069798;28;20440;-90
2023/03/09 04:18:42;;;;;;;35.75;23.35;;;1.00;99.90;;;;;;5068820;28;20398;-91
2023/03/09 04:21:08;;;;;;;34.33;22.85;;;0.90;99.90;;;;;;5069624;28;20973;-91
2023/03/09 04:23:33;;;;;;;36.22;23.13;;;0.90;99.90;;;;;;5068636;28;20402;-89
2023/03/09 04:26:02;;;;;;;34.03;23.10;;;0.90;99.90;;;;;;5069170;28;20430;-91
2023/03/09 04:28:28;;;;;;;35.03;23.45;;;0.90;99.90;;;;;;5068858;28;20413;-91
2023/03/09 04:30:54;;;;;;;34.90;22.83;;;0.80;99.90;;;;;;5085812;28;20398;-91
2023/03/09 04:33:20;;;;;;;32.42;22.67;;;0.80;99.90;;;;;;5069194;28;20398;-90
2023/03/09 04:35:45;;;;;;;33.40;23.03;;;0.80;99.90;;;;;;5067082;28;20811;-89
2023/03/09 04:38:11;;;;;;;33.40;23.00;;;0.80;99.90;;;;;;5069303;28;20406;-91
2023/03/09 04:40:37;;;;;;;33.60;23.17;;;0.80;99.90;;;;;;5084980;28;20451;-89
2023/03/09 04:43:03;;;;;;;34.73;23.40;;;0.80;99.90;;;;;;5069314;28;20452;-91
2023/03/09 04:45:30;;;;;;;33.87;23.80;;;0.80;99.90;;;;;;5068490;28;20555;-89
2023/03/09 04:47:56;;;;;;;36.72;24.27;;;0.80;99.90;;;;;;5068572;28;20414;-90
2023/03/09 04:50:22;;;;;;;35.65;24.15;;;0.80;99.90;;;;;;5069202;28;20461;-91
2023/03/09 04:52:49;;;;;;;35.70;23.95;;;0.80;99.90;;;;;;5067840;28;20870;-91
2023/03/09 04:55:15;;;;;;;34.47;23.77;;;0.80;99.90;;;;;;5068787;28;20492;-91
2023/03/09 04:57:41;;;;;;;35.47;23.73;;;0.80;99.90;;;;;;5068471;28;20501;-90
2023/03/09 05:00:10;;;;;;;35.43;24.33;;;0.90;99.90;;;;;;5068849;28;20978;-90
2023/03/09 05:02:38;;;;;;;36.67;24.90;;;0.90;99.90;;;;;;5068192;28;20446;-91
2023/03/09 05:05:05;;;;;;;35.60;24.30;;;0.90;99.90;;;;;;5085284;28;20422;-91
2023/03/09 05:07:31;;;;;;;36.80;24.63;;;0.90;99.90;;;;;;5084982;28;20797;-89
2023/03/09 05:09:56;;;;;;;37.27;24.23;;;0.80;99.90;;;;;;5068178;28;20413;-91
2023/03/09 05:12:22;;;;;;;35.70;25.03;;;0.90;99.90;;;;;;5085481;28;20421;-90
2023/03/09 05:14:47;;;;;;;35.43;24.50;;;0.90;99.90;;;;;;5084436;28;20403;-90
2023/03/09 05:17:13;;;;;;;33.28;23.83;;;1.00;99.90;;;;;;5068554;28;20405;-90
2023/03/09 05:19:39;;;;;;;35.05;24.70;;;0.90;99.90;;;;;;5085039;28;20428;-90
2023/03/09 05:22:05;;;;;;;35.47;24.43;;;0.90;99.90;;;;;;5068390;28;20406;-90
2023/03/09 05:24:31;;;;;;;38.05;25.17;;;0.90;99.90;;;;;;5085016;28;20402;-90
2023/03/09 05:26:56;;;;;;;35.17;25.02;;;0.80;99.90;;;;;;5068094;28;20425;-90
2023/03/09 05:29:22;;;;;;;37.58;25.58;;;0.90;99.90;;;;;;5068204;28;20418;-90
2023/03/09 05:31:48;;;;;;;36.20;24.88;;;0.90;99.90;;;;;;5067400;28;20410;-91
2023/03/09 05:34:14;;;;;;;37.53;25.70;;;0.80;99.90;;;;;;5068900;28;20477;-90
2023/03/09 05:36:39;;;;;;;39.13;25.90;;;0.80;99.90;;;;;;5067805;28;20394;-90
2023/03/09 05:39:05;;;;;;;37.17;24.67;;;0.80;99.90;;;;;;5068231;28;20413;-90
2023/03/09 05:41:31;;;;;;;37.92;25.73;;;0.80;99.90;;;;;;5067884;28;20443;-88
2023/03/09 05:44:00;;;;;;;39.60;27.05;;;0.80;99.90;;;;;;5068350;28;20402;-90
2023/03/09 05:46:26;;;;;;;39.40;26.02;;;1.00;99.90;;;;;;5084625;28;20458;-90
2023/03/09 05:48:51;;;;;;;37.13;26.35;;;0.90;99.90;;;;;;5087544;28;20452;-89
2023/03/09 05:51:17;;;;;;;35.60;25.90;;;0.90;99.90;;;;;;5071918;28;20417;-90
2023/03/09 05:53:43;;;;;;;38.13;26.77;;;1.00;99.90;;;;;;5070855;28;20413;-90
2023/03/09 05:56:09;;;;;;;35.53;25.25;;;0.90;99.90;;;;;;5072310;28;20402;-91
2023/03/09 05:58:35;;;;;;;36.72;25.52;;;0.90;99.90;;;;;;5070664;28;20907;-90
2023/03/09 06:01:01;;;;;;;37.15;25.17;;;0.90;99.90;;;;;;5089005;28;20439;-90
2023/03/09 06:03:27;;;;;;;35.15;25.45;;;0.90;99.90;;;;;;5088287;28;20394;-88
2023/03/09 06:06:04;;;;;;;35.47;24.70;;;1.00;99.90;;;;;;5088059;28;20425;-89
2023/03/09 06:08:30;;;;;;;36.90;25.17;;;1.00;99.90;;;;;;5089180;28;21121;-89
2023/03/09 06:11:00;;;;;;;36.15;24.60;;;1.00;99.90;;;;;;5090820;28;20853;-90
2023/03/09 06:13:26;;;;;;;36.70;25.87;;;1.00;99.90;;;;;;5091552;28;20806;-91
2023/03/09 06:15:52;;;;;;;34.70;24.58;;;0.90;99.90;;;;;;5084927;28;20406;-88
2023/03/09 06:18:18;;;;;;;34.60;24.45;;;1.00;99.90;;;;;;5087063;28;20416;-89
2023/03/09 06:20:44;;;;;;;33.65;24.27;;;1.00;99.90;;;;;;5070610;28;20410;-89
2023/03/09 06:23:10;;;;;;;35.50;24.73;;;1.00;99.90;;;;;;5070671;28;20398;-89
2023/03/09 06:25:37;;;;;;;35.60;24.92;;;1.00;99.90;;;;;;5070748;28;20781;-89
2023/03/09 06:28:03;;;;;;;34.83;24.20;;;1.20;99.90;;;;;;5072885;28;20402;-91
2023/03/09 06:30:28;;;;;;;34.63;24.85;;;1.00;99.90;;;;;;5087952;28;20413;-89
2023/03/09 06:32:56;;;;;;;35.28;25.05;;;1.10;99.90;;;;;;5069254;28;20452;-88
2023/03/09 06:35:23;;;;;;;37.00;25.67;;;1.10;99.90;;;;;;5070910;28;20412;-89
2023/03/09 06:37:48;;;;;;;36.35;24.13;;;1.10;99.90;;;;;;5070135;28;20424;-89
2023/03/09 06:40:14;;;;;;;36.40;25.17;;;1.20;99.90;;;;;;5070697;28;20394;-89
2023/03/09 06:42:40;;;;;;;31.85;23.70;;;1.10;99.90;;;;;;5087355;28;20871;-88
2023/03/09 06:45:07;;;;;;;34.80;25.48;;;1.10;99.90;;;;;;5069651;28;20495;-89
2023/03/09 06:47:32;;;;;;;36.17;24.58;;;1.10;99.90;;;;;;5070285;28;20410;-89
2023/03/09 06:49:58;;;;;;;34.88;24.73;;;1.10;99.90;;;;;;5069491;28;20429;-90
2023/03/09 06:52:25;;;;;;;34.63;24.17;;;1.10;99.90;;;;;;5086791;28;20805;-88
2023/03/09 06:54:51;;;;;;;33.90;25.25;;;1.10;99.90;;;;;;5086374;28;20452;-90
2023/03/09 06:57:17;;;;;;;35.80;24.58;;;1.10;99.90;;;;;;5069911;28;20413;-88
2023/03/09 06:59:42;;;;;;;35.03;24.58;;;1.10;99.90;;;;;;5086076;28;20796;-90
2023/03/09 07:02:11;;;;;;;34.57;24.80;;;1.10;99.90;;;;;;5069746;28;20489;-90
2023/03/09 07:04:37;;;;;;;36.70;25.25;;;1.10;99.90;;;;;;5086603;28;20486;-89
2023/03/09 07:07:03;;;;;;;33.93;23.87;;;1.20;99.90;;;;;;5085580;28;20544;-89
2023/03/09 07:09:31;;;;;;;34.87;24.53;;;1.20;99.90;;;;;;5070094;28;20406;-88
2023/03/09 07:11:57;;;;;;;32.20;23.67;;;1.20;99.90;;;;;;5068798;28;20909;-90
2023/03/09 07:14:23;;;;;;;34.92;24.30;;;1.20;99.90;;;;;;5086512;28;20493;-89
2023/03/09 07:16:53;;;;;;;31.92;23.42;;;1.30;99.90;;;;;;5069579;28;20525;-89
2023/03/09 07:19:19;;;;;;;30.70;22.92;;;1.30;99.90;;;;;;5069533;28;20520;-89
2023/03/09 07:21:44;;;;;;;32.30;23.58;;;1.30;99.90;;;;;;5069218;28;21352;-89
2023/03/09 07:24:10;;;;;;;30.30;22.95;;;1.30;99.90;;;;;;5086093;28;20482;-90
2023/03/09 07:26:36;;;;;;;30.27;23.47;;;1.30;99.90;;;;;;5086535;28;20434;-89
2023/03/09 07:29:02;;;;;;;32.37;23.73;;;1.30;99.90;;;;;;5068307;28;20410;-90
2023/03/09 07:31:31;;;;;;;30.70;23.38;;;1.40;99.90;;;;;;5069474;28;20469;-90
2023/03/09 07:33:58;;;;;;;32.00;23.65;;;1.50;99.90;;;;;;5068841;28;20402;-91
2023/03/09 07:36:23;;;;;;;30.48;24.38;;;1.60;99.90;;;;;;5069885;28;20402;-92
2023/03/09 07:38:50;;;;;;;31.03;23.87;;;1.70;99.90;;;;;;5069450;28;20398;-90
2023/03/09 07:41:17;;;;;;;29.27;22.53;;;1.90;99.90;;;;;;5086140;28;20398;-90
2023/03/09 07:43:46;;;;;;;26.83;21.25;;;2.00;99.90;;;;;;5069571;28;20406;-91
2023/03/09 07:46:15;;;;;;;29.60;22.70;;;2.10;99.90;;;;;;5068766;28;20601;-90
2023/03/09 07:48:44;;;;;;;29.70;22.05;;;2.20;99.90;;;;;;5069544;28;20441;-89
2023/03/09 07:51:11;;;;;;;29.13;21.48;;;2.30;99.90;;;;;;5068443;28;20406;-89
2023/03/09 07:53:39;;;;;;;27.60;21.33;;;2.40;99.90;;;;;;5085407;28;20409;-89
2023/03/09 07:56:07;;;;;;;27.30;20.95;;;2.40;99.90;;;;;;5068744;28;20398;-89
2023/03/09 07:58:35;;;;;;;25.48;20.25;;;2.50;99.90;;;;;;5069217;28;20967;-89
2023/03/09 08:01:02;;;;;;;26.23;20.77;;;2.60;99.90;;;;;;5085788;28;20394;-90
2023/03/09 08:03:28;;;;;;;26.05;20.23;;;2.50;99.90;;;;;;5067741;28;20406;-91
2023/03/09 08:05:55;;;;;;;26.03;20.40;;;2.60;99.90;;;;;;5085560;28;20805;-90
2023/03/09 08:08:28;;;;;;;25.88;19.80;;;2.60;99.90;;;;;;5085029;28;20429;-90
2023/03/09 08:10:54;;;;;;;24.65;19.65;;;2.70;99.90;;;;;;5069112;28;20398;-89
2023/03/09 08:13:21;;;;;;;23.55;19.27;;;2.70;99.90;;;;;;5068029;28;20508;-89
2023/03/09 08:15:48;;;;;;;22.92;18.90;;;2.80;99.90;;;;;;5068185;28;20452;-90
2023/03/09 08:18:14;;;;;;;24.20;20.30;;;2.80;99.90;;;;;;5068768;28;20428;-90
2023/03/09 08:20:39;;;;;;;22.70;18.47;;;2.80;99.90;;;;;;5085125;28;20398;-90
2023/03/09 08:23:06;;;;;;;22.77;18.52;;;2.90;99.90;;;;;;5069060;28;20439;-93
2023/03/09 08:25:32;;;;;;;23.40;18.98;;;2.90;99.90;;;;;;5067949;28;20425;-90
2023/03/09 08:27:59;;;;;;;21.98;18.85;;;3.10;99.90;;;;;;5085831;28;20456;-90
2023/03/09 08:30:25;;;;;;;24.08;19.38;;;3.10;99.90;;;;;;5085721;28;20416;-89
2023/03/09 08:32:52;;;;;;;21.23;18.10;;;3.20;99.90;;;;;;5068812;28;20950;-90
2023/03/09 08:35:21;;;;;;;22.75;17.30;;;3.20;99.90;;;;;;5069221;28;20757;-92
2023/03/09 08:37:47;;;;;;;21.30;17.07;;;3.30;99.90;;;;;;5068467;28;20471;-90
2023/03/09 08:40:14;;;;;;;20.15;16.60;;;3.30;99.90;;;;;;5085901;28;20425;-92
2023/03/09 08:42:40;;;;;;;20.05;16.83;;;3.50;99.90;;;;;;5068071;28;20788;-90
2023/03/09 08:45:07;;;;;;;21.17;17.60;;;3.40;99.80;;;;;;5068594;28;20417;-89
2023/03/09 08:47:33;;;;;;;20.35;16.98;;;3.50;99.90;;;;;;5068964;28;20409;-90
2023/03/09 08:49:59;;;;;;;21.05;17.13;;;3.50;99.80;;;;;;5085400;28;20433;-92
2023/03/09 08:52:25;;;;;;;18.07;15.93;;;3.60;99.70;;;;;;5068520;28;20506;-89
2023/03/09 08:54:51;;;;;;;20.40;16.63;;;3.60;99.40;;;;;;5068669;28;20964;-91
2023/03/09 08:57:17;;;;;;;18.38;15.15;;;3.80;99.50;;;;;;5085511;28;20410;-87
2023/03/09 08:59:43;;;;;;;14.90;12.07;;;3.90;99.10;;;;;;5068076;28;20401;-88
2023/03/09 09:02:14;;;;;;;13.32;11.73;;;3.90;98.10;;;;;;5069083;28;20394;-88
2023/03/09 09:04:41;;;;;;;13.43;11.63;;;4.00;97.50;;;;;;5067973;28;20390;-89
2023/03/09 09:07:07;;;;;;;14.38;12.40;;;4.10;96.70;;;;;;5085340;28;20418;-89
2023/03/09 09:09:33;;;;;;;14.20;12.57;;;4.10;97.10;;;;;;5068421;28;20386;-90
2023/03/09 09:12:00;;;;;;;15.05;12.73;;;4.20;97.10;;;;;;5085072;28;20440;-91
2023/03/09 09:14:26;;;;;;;15.75;13.23;;;4.30;97.30;;;;;;5085510;28;20485;-91
2023/03/09 09:16:51;;;;;;;12.98;11.25;;;4.30;97.40;;;;;;5068603;28;20505;-91
2023/03/09 09:19:17;;;;;;;12.93;11.17;;;4.30;96.00;;;;;;5069064;28;20398;-90
2023/03/09 09:21:43;;;;;;;13.23;11.83;;;4.40;95.50;;;;;;5067858;28;20437;-90
2023/03/09 09:24:09;;;;;;;12.77;11.27;;;4.40;95.90;;;;;;5072563;28;20731;-90
2023/03/09 09:26:34;;;;;;;14.32;12.07;;;4.50;96.50;;;;;;5071904;28;20425;-89
2023/03/09 09:29:01;;;;;;;14.75;12.38;;;4.70;96.00;;;;;;5072461;28;20397;-88
2023/03/09 09:31:28;;;;;;;14.20;12.70;;;4.60;96.10;;;;;;5072299;28;20433;-90
2023/03/09 09:33:54;;;;;;;13.98;12.48;;;4.60;96.00;;;;;;5072301;28;20598;-89
2023/03/09 09:36:20;;;;;;;13.38;11.98;;;4.60;95.90;;;;;;5072090;28;20398;-89
2023/03/09 09:38:46;;;;;;;13.88;12.48;;;4.70;95.70;;;;;;5071574;28;20405;-90
2023/03/09 09:41:18;;;;;;;13.15;11.55;;;4.90;96.30;;;;;;5072571;28;20497;-90
2023/03/09 09:43:49;;;;;;;12.13;10.93;;;5.00;95.80;;;;;;5071515;28;20402;-89
2023/03/09 09:46:16;;;;;;;12.88;11.07;;;5.10;95.70;;;;;;5072250;28;20426;-89
2023/03/09 09:48:44;;;;;;;10.13;9.10;;;5.10;94.10;;;;;;5071877;28;20409;-92
2023/03/09 09:51:38;;;;;;;9.95;8.95;;;5.20;93.50;;;;;;5071631;28;20406;-91
2023/03/09 09:54:22;;;;;;;10.02;8.88;;;5.20;93.00;;;;;;5072179;28;20494;-92
2023/03/09 09:56:51;;;;;;;9.90;8.90;;;5.20;93.40;;;;;;5071597;28;20777;-90
2023/03/09 09:59:41;;;;;;;10.57;8.98;;;5.40;92.90;;;;;;5071658;28;20420;-91
2023/03/09 10:02:10;;;;;;;9.05;8.15;;;5.60;93.10;;;;;;5066583;28;20410;-91
2023/03/09 10:04:50;;;;;;;9.02;7.80;;;5.80;92.20;;;;;;5099550;28;20442;-90
2023/03/09 10:07:19;;;;;;;9.20;7.97;;;5.70;91.30;;;;;;5088085;28;20430;-89
2023/03/09 10:09:54;;;;;;;8.85;7.82;;;5.70;90.80;;;;;;5086761;28;20470;-89
2023/03/09 10:12:20;;;;;;;9.85;8.85;;;5.60;91.70;;;;;;5088352;28;20406;-89
2023/03/09 10:14:57;;;;;;;9.82;8.82;;;5.70;92.00;;;;;;5070866;28;20422;-90
2023/03/09 10:17:43;;;;;;;9.13;8.23;;;5.80;91.80;;;;;;5071030;28;20452;-91
2023/03/09 10:20:27;;;;;;;9.05;8.15;;;6.00;91.60;;;;;;5067184;28;20402;-89
2023/03/09 10:22:55;;;;;;;9.25;8.35;;;6.20;90.80;;;;;;5071131;28;20417;-90
2023/03/09 10:25:22;;;;;;;8.90;8.10;;;6.40;89.20;;;;;;5071370;28;20425;-89
2023/03/09 10:28:08;;;;;;;8.80;7.90;;;6.80;87.70;;;;;;5070933;28;20407;-91
2023/03/09 10:30:45;;;;;;;9.32;8.50;;;6.70;83.70;;;;;;5087318;28;20406;-89
2023/03/09 10:33:17;;;;;;;9.27;8.40;;;6.70;83.00;;;;;;5088122;28;20429;-90
2023/03/09 10:35:55;;;;;;;9.57;8.68;;;6.80;83.80;;;;;;5070468;28;21006;-90
2023/03/09 10:38:23;;;;;;;9.10;8.30;;;6.90;84.00;;;;;;5087861;28;20406;-90
2023/03/09 10:40:51;;;;;;;9.38;8.45;;;7.00;80.80;;;;;;5087915;28;20399;-90
2023/03/09 10:43:27;;;;;;;9.48;8.57;;;7.10;81.90;;;;;;5070606;28;20394;-90
2023/03/09 10:46:12;;;;;;;9.40;8.50;;;7.20;81.10;;;;;;5071336;28;20519;-90
2023/03/09 10:48:38;;;;;;;9.02;8.15;;;7.40;79.50;;;;;;5070419;28;20413;-87
2023/03/09 10:51:05;;;;;;;9.70;8.70;;;7.80;77.70;;;;;;5070637;28;20432;-89
2023/03/09 10:53:41;;;;;;;9.23;8.32;;;7.90;75.10;;;;;;5086463;28;20410;-91
2023/03/09 10:56:24;;;;;;;8.68;7.88;;;8.30;75.60;;;;;;5069845;28;20413;-90
2023/03/09 10:59:07;;;;;;;8.50;7.70;;;8.10;71.50;;;;;;5071134;28;20410;-90
2023/03/09 11:01:37;;;;;;;9.60;8.65;;;8.00;70.10;;;;;;5069462;28;20424;-89
2023/03/09 11:04:21;;;;;;;9.57;8.70;;;8.00;73.10;;;;;;5070045;28;20411;-89
2023/03/09 11:06:52;;;;;;;8.38;7.68;;;7.90;72.80;;;;;;5069572;28;20508;-87
2023/03/09 11:09:22;;;;;;;8.50;7.70;;;7.90;71.20;;;;;;5069689;28;20394;-89
2023/03/09 11:11:49;;;;;;;8.50;7.70;;;7.90;72.40;;;;;;5070941;28;20757;-91
2023/03/09 11:14:29;;;;;;;9.25;8.00;;;7.70;73.20;;;;;;5069085;28;20406;-90
2023/03/09 11:16:57;;;;;;;8.02;7.32;;;7.80;72.10;;;;;;5086433;28;20417;-89
2023/03/09 11:19:25;;;;;;;8.73;7.93;;;7.80;71.80;;;;;;5069248;28;20398;-87
2023/03/09 11:21:56;;;;;;;8.27;7.57;;;7.90;74.00;;;;;;5069455;28;20398;-89
2023/03/09 11:24:30;;;;;;;8.27;7.47;;;7.90;72.50;;;;;;5070156;28;20946;-90
2023/03/09 11:27:02;;;;;;;7.67;6.97;;;7.90;72.40;;;;;;5085472;28;20418;-88
2023/03/09 11:29:47;;;;;;;7.90;7.10;;;7.80;71.10;;;;;;5069585;28;20418;-87
2023/03/09 11:32:12;;;;;;;6.72;6.13;;;7.80;73.00;;;;;;5068610;28;20413;-89
2023/03/09 11:34:43;;;;;;;6.97;6.37;;;7.90;71.90;;;;;;5069373;28;20402;-89
2023/03/09 11:37:33;;;;;;;6.00;5.40;;;7.90;71.60;;;;;;5070171;28;20451;-89
2023/03/09 11:40:10;;;;;;;6.33;5.73;;;7.80;69.70;;;;;;5086360;28;20557;-92
2023/03/09 11:42:49;;;;;;;6.10;5.55;;;7.80;71.10;;;;;;5087421;28;20418;-91
2023/03/09 11:45:29;;;;;;;5.90;5.30;;;7.70;69.60;;;;;;5086422;28;20398;-90
2023/03/09 11:48:13;;;;;;;6.27;5.67;;;7.70;68.70;;;;;;5094456;28;20485;-91
2023/03/09 11:50:55;;;;;;;6.67;5.63;;;7.80;69.70;;;;;;5103119;28;20397;-90
2023/03/09 11:53:24;;;;;;;6.93;5.82;;;7.90;69.60;;;;;;5085845;28;20769;-91
2023/03/09 11:55:54;;;;;;;5.95;5.35;;;7.90;73.00;;;;;;5069143;28;20410;-91
2023/03/09 11:58:25;;;;;;;6.27;5.67;;;8.00;70.40;;;;;;5069530;28;20455;-90
2023/03/09 12:01:05;;;;;;;6.10;5.50;;;8.10;69.50;;;;;;5069132;28;20408;-91
2023/03/09 12:03:39;;;;;;;6.20;5.60;;;8.20;69.20;;;;;;5069404;28;20555;-91
2023/03/09 12:06:20;;;;;;;6.03;5.27;;;8.30;70.10;;;;;;5068567;28;20999;-89
2023/03/09 12:08:46;;;;;;;5.90;5.30;;;8.70;68.80;;;;;;5069677;28;20417;-90
2023/03/09 12:11:15;;;;;;;6.13;5.50;;;8.60;70.20;;;;;;5067878;28;20499;-92
2023/03/09 12:13:50;;;;;;;6.03;5.50;;;8.50;68.60;;;;;;5077251;28;20402;-91
2023/03/09 12:16:25;;;;;;;6.05;5.45;;;8.60;69.10;;;;;;5066001;28;20394;-90
2023/03/09 12:19:01;;;;;;;6.10;5.60;;;8.60;70.00;;;;;;5087537;28;20388;-91
2023/03/09 12:21:34;;;;;;;5.95;5.15;;;8.70;68.50;;;;;;5089533;28;20419;-91
2023/03/09 12:24:18;;;;;;;5.47;4.97;;;8.60;66.80;;;;;;5085654;28;20402;-90
2023/03/09 12:26:43;;;;;;;4.95;4.55;;;8.50;66.30;;;;;;5068530;28;20963;-91
2023/03/09 12:29:22;;;;;;;5.05;4.55;;;8.40;66.80;;;;;;5087104;28;20428;-89
2023/03/09 12:32:16;;;;;;;5.55;4.60;;;8.30;66.90;;;;;;5075155;28;20428;-89
2023/03/09 12:34:44;;;;;;;6.15;4.95;;;8.10;67.40;;;;;;5090054;28;20415;-89
2023/03/09 12:37:30;;;;;;;5.20;4.70;;;8.10;68.30;;;;;;5088745;28;21006;-89
2023/03/09 12:40:25;;;;;;;4.75;4.35;;;8.10;68.50;;;;;;5074434;28;20410;-90
2023/03/09 12:42:53;;;;;;;4.82;4.32;;;8.10;67.80;;;;;;5086817;28;20493;-90
2023/03/09 12:45:19;;;;;;;4.90;4.32;;;8.00;67.80;;;;;;5082769;28;20465;-88
2023/03/09 12:48:08;;;;;;;5.60;4.90;;;7.90;69.30;;;;;;5085348;28;20949;-89
2023/03/09 12:50:42;;;;;;;5.45;4.85;;;7.90;68.40;;;;;;5068580;28;20905;-91